sensor_id;sensor_type;location;lat;lon;timestamp;pressure;altitude;pressure_sealevel;temperature;humidity
19594;BME280;9944;48.240;16.478;2023-09-19T00:02:30;99198.75;;;20.34;61.19
19594;BME280;9944;48.240;16.478;2023-09-19T00:06:35;99190.41;;;20.23;61.87
19594;BME280;9944;48.240;16.478;2023-09-19T00:10:38;99193.66;;;20.12;62.29
19594;BME280;9944;48.240;16.478;2023-09-19T00:14:43;99192.22;;;20.05;63.21
19594;BME280;9944;48.240;16.478;2023-09-19T00:18:48;99197.38;;;19.92;64.03
19594;BME280;9944;48.240;16.478;2023-09-19T00:22:52;99210.22;;;19.85;64.81
19594;BME280;9944;48.240;16.478;2023-09-19T00:26:55;99208.88;;;19.76;65.33
19594;BME280;9944;48.240;16.478;2023-09-19T00:31:01;99209.38;;;19.67;66.27
19594;BME280;9944;48.240;16.478;2023-09-19T00:35:08;99223.31;;;19.56;66.42
19594;BME280;9944;48.240;16.478;2023-09-19T00:39:12;99222.91;;;19.45;67.51
19594;BME280;9944;48.240;16.478;2023-09-19T00:43:16;99227.06;;;19.33;68.19
19594;BME280;9944;48.240;16.478;2023-09-19T00:47:20;99227.53;;;19.24;68.67
19594;BME280;9944;48.240;16.478;2023-09-19T00:51:25;99223.56;;;19.14;69.28
19594;BME280;9944;48.240;16.478;2023-09-19T00:55:29;99225.91;;;19.02;70.01
19594;BME280;9944;48.240;16.478;2023-09-19T00:59:34;99237.19;;;18.90;70.56
19594;BME280;9944;48.240;16.478;2023-09-19T01:03:38;99238.56;;;18.80;71.16
19594;BME280;9944;48.240;16.478;2023-09-19T01:07:44;99238.69;;;18.77;71.55
19594;BME280;9944;48.240;16.478;2023-09-19T01:11:51;99239.09;;;18.67;71.91
19594;BME280;9944;48.240;16.478;2023-09-19T01:16:02;99230.56;;;18.59;72.05
19594;BME280;9944;48.240;16.478;2023-09-19T01:20:27;99235.50;;;18.48;72.41
19594;BME280;9944;48.240;16.478;2023-09-19T01:25:01;99234.34;;;18.35;72.90
19594;BME280;9944;48.240;16.478;2023-09-19T01:29:23;99241.75;;;18.28;72.74
19594;BME280;9944;48.240;16.478;2023-09-19T01:34:00;99245.56;;;18.22;73.07
19594;BME280;9944;48.240;16.478;2023-09-19T01:38:08;99241.28;;;18.18;73.44
19594;BME280;9944;48.240;16.478;2023-09-19T01:42:19;99249.66;;;18.10;73.71
19594;BME280;9944;48.240;16.478;2023-09-19T01:46:30;99256.09;;;18.05;74.13
19594;BME280;9944;48.240;16.478;2023-09-19T01:50:42;99268.94;;;17.97;74.34
19594;BME280;9944;48.240;16.478;2023-09-19T01:54:51;99267.59;;;17.86;74.73
19594;BME280;9944;48.240;16.478;2023-09-19T01:58:56;99264.38;;;17.78;74.72
19594;BME280;9944;48.240;16.478;2023-09-19T02:03:03;99267.41;;;17.69;75.17
19594;BME280;9944;48.240;16.478;2023-09-19T02:07:08;99260.72;;;17.59;75.35
19594;BME280;9944;48.240;16.478;2023-09-19T02:11:11;99277.84;;;17.53;75.69
19594;BME280;9944;48.240;16.478;2023-09-19T02:15:16;99275.38;;;17.48;75.82
19594;BME280;9944;48.240;16.478;2023-09-19T02:19:19;99280.69;;;17.48;75.97
19594;BME280;9944;48.240;16.478;2023-09-19T02:23:25;99271.06;;;17.44;76.02
19594;BME280;9944;48.240;16.478;2023-09-19T02:27:29;99271.94;;;17.45;76.52
19594;BME280;9944;48.240;16.478;2023-09-19T02:31:32;99275.53;;;17.44;76.16
19594;BME280;9944;48.240;16.478;2023-09-19T02:35:36;99264.00;;;17.43;76.68
19594;BME280;9944;48.240;16.478;2023-09-19T02:39:41;99266.56;;;17.46;77.04
19594;BME280;9944;48.240;16.478;2023-09-19T02:43:46;99279.75;;;17.49;76.89
19594;BME280;9944;48.240;16.478;2023-09-19T02:47:50;99287.91;;;17.46;76.84
19594;BME280;9944;48.240;16.478;2023-09-19T02:51:53;99278.03;;;17.48;77.08
19594;BME280;9944;48.240;16.478;2023-09-19T02:55:58;99283.38;;;17.48;77.61
19594;BME280;9944;48.240;16.478;2023-09-19T03:00:04;99285.09;;;17.49;77.68
19594;BME280;9944;48.240;16.478;2023-09-19T03:04:07;99283.25;;;17.51;77.74
19594;BME280;9944;48.240;16.478;2023-09-19T03:08:13;99282.31;;;17.52;78.07
19594;BME280;9944;48.240;16.478;2023-09-19T03:12:22;99281.38;;;17.53;78.14
19594;BME280;9944;48.240;16.478;2023-09-19T03:16:26;99279.50;;;17.55;78.54
19594;BME280;9944;48.240;16.478;2023-09-19T03:20:34;99282.06;;;17.59;78.81
19594;BME280;9944;48.240;16.478;2023-09-19T03:24:38;99286.34;;;17.63;78.85
19594;BME280;9944;48.240;16.478;2023-09-19T03:28:43;99297.97;;;17.62;78.92
19594;BME280;9944;48.240;16.478;2023-09-19T03:32:49;99299.75;;;17.61;79.35
19594;BME280;9944;48.240;16.478;2023-09-19T03:36:53;99297.28;;;17.56;79.36
19594;BME280;9944;48.240;16.478;2023-09-19T03:40:57;99302.69;;;17.55;79.75
19594;BME280;9944;48.240;16.478;2023-09-19T03:45:02;99305.53;;;17.50;79.78
19594;BME280;9944;48.240;16.478;2023-09-19T03:49:09;99301.38;;;17.43;79.42
19594;BME280;9944;48.240;16.478;2023-09-19T03:53:12;99297.91;;;17.41;79.64
19594;BME280;9944;48.240;16.478;2023-09-19T03:57:16;99296.03;;;17.43;79.42
19594;BME280;9944;48.240;16.478;2023-09-19T04:01:24;99307.50;;;17.45;79.61
19594;BME280;9944;48.240;16.478;2023-09-19T04:05:28;99310.16;;;17.45;79.56
19594;BME280;9944;48.240;16.478;2023-09-19T04:09:31;99308.41;;;17.44;79.90
19594;BME280;9944;48.240;16.478;2023-09-19T04:13:34;99324.56;;;17.41;79.15
19594;BME280;9944;48.240;16.478;2023-09-19T04:17:39;99331.63;;;17.42;78.96
19594;BME280;9944;48.240;16.478;2023-09-19T04:21:43;99331.63;;;17.42;79.03
19594;BME280;9944;48.240;16.478;2023-09-19T04:25:46;99332.44;;;17.44;79.20
19594;BME280;9944;48.240;16.478;2023-09-19T04:29:50;99344.91;;;17.44;79.03
19594;BME280;9944;48.240;16.478;2023-09-19T04:33:56;99351.13;;;17.44;78.86
19594;BME280;9944;48.240;16.478;2023-09-19T04:38:01;99360.94;;;17.44;79.13
19594;BME280;9944;48.240;16.478;2023-09-19T04:42:07;99356.44;;;17.44;79.07
19594;BME280;9944;48.240;16.478;2023-09-19T04:46:14;99367.13;;;17.44;79.13
19594;BME280;9944;48.240;16.478;2023-09-19T04:50:20;99377.81;;;17.44;79.14
19594;BME280;9944;48.240;16.478;2023-09-19T04:54:25;99364.41;;;17.46;79.07
19594;BME280;9944;48.240;16.478;2023-09-19T04:58:29;99371.59;;;17.44;79.19
19594;BME280;9944;48.240;16.478;2023-09-19T05:02:32;99377.94;;;17.41;79.28
19594;BME280;9944;48.240;16.478;2023-09-19T05:06:37;99368.25;;;17.38;79.43
19594;BME280;9944;48.240;16.478;2023-09-19T05:10:41;99371.88;;;17.37;79.19
19594;BME280;9944;48.240;16.478;2023-09-19T05:14:44;99372.03;;;17.33;79.26
19594;BME280;9944;48.240;16.478;2023-09-19T05:18:48;99379.16;;;17.32;79.31
19594;BME280;9944;48.240;16.478;2023-09-19T05:22:59;99380.94;;;17.32;79.40
19594;BME280;9944;48.240;16.478;2023-09-19T05:27:04;99388.94;;;17.32;79.58
19594;BME280;9944;48.240;16.478;2023-09-19T05:31:08;99400.53;;;17.32;79.46
19594;BME280;9944;48.240;16.478;2023-09-19T05:35:12;99397.09;;;17.29;79.60
19594;BME280;9944;48.240;16.478;2023-09-19T05:39:17;99403.25;;;17.31;79.89
19594;BME280;9944;48.240;16.478;2023-09-19T05:43:21;99403.13;;;17.34;79.76
19594;BME280;9944;48.240;16.478;2023-09-19T05:47:24;99401.38;;;17.33;80.02
19594;BME280;9944;48.240;16.478;2023-09-19T05:51:27;99399.50;;;17.35;80.12
19594;BME280;9944;48.240;16.478;2023-09-19T05:55:32;99401.28;;;17.36;80.37
19594;BME280;9944;48.240;16.478;2023-09-19T05:59:36;99401.22;;;17.37;80.58
19594;BME280;9944;48.240;16.478;2023-09-19T06:03:41;99395.81;;;17.39;80.65
19594;BME280;9944;48.240;16.478;2023-09-19T06:07:44;99399.25;;;17.43;81.17
19594;BME280;9944;48.240;16.478;2023-09-19T06:11:50;99408.00;;;17.46;81.11
19594;BME280;9944;48.240;16.478;2023-09-19T06:15:54;99420.28;;;17.50;81.42
19594;BME280;9944;48.240;16.478;2023-09-19T06:19:58;99414.03;;;17.51;81.58
19594;BME280;9944;48.240;16.478;2023-09-19T06:24:02;99418.41;;;17.52;81.74
19594;BME280;9944;48.240;16.478;2023-09-19T06:28:07;99421.88;;;17.54;82.32
19594;BME280;9944;48.240;16.478;2023-09-19T06:32:14;99424.44;;;17.57;82.37
19594;BME280;9944;48.240;16.478;2023-09-19T06:36:17;99424.44;;;17.57;82.38
19594;BME280;9944;48.240;16.478;2023-09-19T06:40:21;99428.75;;;17.62;82.51
19594;BME280;9944;48.240;16.478;2023-09-19T06:44:26;99439.06;;;17.71;82.70
19594;BME280;9944;48.240;16.478;2023-09-19T06:48:32;99441.50;;;17.77;82.73
19594;BME280;9944;48.240;16.478;2023-09-19T06:52:35;99453.03;;;17.79;82.26
19594;BME280;9944;48.240;16.478;2023-09-19T06:56:38;99454.75;;;17.80;81.69
19594;BME280;9944;48.240;16.478;2023-09-19T07:00:44;99454.88;;;17.77;81.01
19594;BME280;9944;48.240;16.478;2023-09-19T07:04:48;99463.81;;;17.76;80.50
19594;BME280;9944;48.240;16.478;2023-09-19T07:08:52;99456.69;;;17.77;80.35
19594;BME280;9944;48.240;16.478;2023-09-19T07:12:56;99461.97;;;17.78;79.87
19594;BME280;9944;48.240;16.478;2023-09-19T07:17:01;99467.19;;;17.81;79.64
19594;BME280;9944;48.240;16.478;2023-09-19T07:21:06;99463.47;;;17.85;79.49
19594;BME280;9944;48.240;16.478;2023-09-19T07:25:09;99467.50;;;17.96;79.97
19594;BME280;9944;48.240;16.478;2023-09-19T07:29:12;99479.06;;;17.96;79.05
19594;BME280;9944;48.240;16.478;2023-09-19T07:33:17;99481.66;;;17.98;79.43
19594;BME280;9944;48.240;16.478;2023-09-19T07:37:20;99494.91;;;18.01;79.09
19594;BME280;9944;48.240;16.478;2023-09-19T07:41:24;99494.03;;;18.00;78.93
19594;BME280;9944;48.240;16.478;2023-09-19T07:45:28;99501.06;;;18.03;79.05
19594;BME280;9944;48.240;16.478;2023-09-19T07:49:33;99505.47;;;18.04;78.65
19594;BME280;9944;48.240;16.478;2023-09-19T07:53:37;99510.88;;;18.02;78.24
19594;BME280;9944;48.240;16.478;2023-09-19T07:57:40;99514.41;;;18.03;78.00
19594;BME280;9944;48.240;16.478;2023-09-19T08:01:44;99520.56;;;18.05;78.58
19594;BME280;9944;48.240;16.478;2023-09-19T08:05:49;99520.44;;;18.08;78.88
19594;BME280;9944;48.240;16.478;2023-09-19T08:09:52;99522.16;;;18.10;78.84
19594;BME280;9944;48.240;16.478;2023-09-19T08:13:55;99526.47;;;18.13;78.53
19594;BME280;9944;48.240;16.478;2023-09-19T08:18:00;99525.34;;;18.19;78.42
19594;BME280;9944;48.240;16.478;2023-09-19T08:22:05;99524.50;;;18.18;77.88
19594;BME280;9944;48.240;16.478;2023-09-19T08:26:08;99528.88;;;18.21;78.65
19594;BME280;9944;48.240;16.478;2023-09-19T08:30:12;99534.06;;;18.24;78.61
19594;BME280;9944;48.240;16.478;2023-09-19T08:34:16;99537.38;;;18.30;78.73
19594;BME280;9944;48.240;16.478;2023-09-19T08:38:21;99553.91;;;18.40;78.70
19594;BME280;9944;48.240;16.478;2023-09-19T08:42:24;99560.69;;;18.49;78.24
19594;BME280;9944;48.240;16.478;2023-09-19T08:46:30;99556.72;;;18.59;77.54
19594;BME280;9944;48.240;16.478;2023-09-19T08:50:42;99555.50;;;18.68;76.67
19594;BME280;9944;48.240;16.478;2023-09-19T08:54:48;99567.06;;;18.68;76.27
19594;BME280;9944;48.240;16.478;2023-09-19T08:58:57;99564.34;;;18.70;75.56
19594;BME280;9944;48.240;16.478;2023-09-19T09:03:03;99568.81;;;18.69;75.27
19594;BME280;9944;48.240;16.478;2023-09-19T09:07:11;99570.53;;;18.71;75.18
19594;BME280;9944;48.240;16.478;2023-09-19T09:11:16;99570.53;;;18.71;74.76
19594;BME280;9944;48.240;16.478;2023-09-19T09:15:21;99564.34;;;18.70;74.82
19594;BME280;9944;48.240;16.478;2023-09-19T09:19:25;99567.88;;;18.71;74.19
19594;BME280;9944;48.240;16.478;2023-09-19T09:23:28;99568.81;;;18.69;74.25
19594;BME280;9944;48.240;16.478;2023-09-19T09:27:35;99576.00;;;18.67;74.08
19594;BME280;9944;48.240;16.478;2023-09-19T09:31:38;99573.56;;;18.61;74.14
19594;BME280;9944;48.240;16.478;2023-09-19T09:35:49;99581.59;;;18.61;74.28
19594;BME280;9944;48.240;16.478;2023-09-19T09:39:55;99577.16;;;18.60;73.96
19594;BME280;9944;48.240;16.478;2023-09-19T09:44:12;99584.38;;;18.58;73.99
19594;BME280;9944;48.240;16.478;2023-09-19T09:48:24;99593.06;;;18.65;74.18
19594;BME280;9944;48.240;16.478;2023-09-19T09:52:44;99585.28;;;18.81;74.45
19594;BME280;9944;48.240;16.478;2023-09-19T09:56:55;99585.72;;;18.92;74.29
19594;BME280;9944;48.240;16.478;2023-09-19T10:01:03;99592.28;;;19.05;74.31
19594;BME280;9944;48.240;16.478;2023-09-19T10:05:12;99588.94;;;19.21;73.27
19594;BME280;9944;48.240;16.478;2023-09-19T10:09:23;99589.53;;;19.50;73.12
19594;BME280;9944;48.240;16.478;2023-09-19T10:13:38;99597.81;;;19.85;73.05
19594;BME280;9944;48.240;16.478;2023-09-19T10:17:46;99589.44;;;20.11;70.59
19594;BME280;9944;48.240;16.478;2023-09-19T10:21:50;99585.13;;;20.28;69.76
19594;BME280;9944;48.240;16.478;2023-09-19T10:25:57;99587.88;;;20.45;69.89
19594;BME280;9944;48.240;16.478;2023-09-19T10:30:06;99591.53;;;20.62;69.14
19594;BME280;9944;48.240;16.478;2023-09-19T10:34:14;99587.59;;;20.69;68.20
19594;BME280;9944;48.240;16.478;2023-09-19T10:38:19;99585.56;;;20.74;68.14
19594;BME280;9944;48.240;16.478;2023-09-19T10:42:23;99584.50;;;20.78;66.52
19594;BME280;9944;48.240;16.478;2023-09-19T10:46:31;99584.81;;;20.89;66.87
19594;BME280;9944;48.240;16.478;2023-09-19T10:50:43;99589.38;;;21.06;67.03
19594;BME280;9944;48.240;16.478;2023-09-19T10:54:51;99586.41;;;21.30;66.44
19594;BME280;9944;48.240;16.478;2023-09-19T10:59:06;99597.22;;;21.46;65.38
19594;BME280;9944;48.240;16.478;2023-09-19T11:03:18;99582.19;;;21.59;64.86
19594;BME280;9944;48.240;16.478;2023-09-19T11:07:24;99578.59;;;21.76;65.02
19594;BME280;9944;48.240;16.478;2023-09-19T11:11:45;99580.56;;;21.90;63.42
19594;BME280;9944;48.240;16.478;2023-09-19T11:16:17;99559.28;;;22.03;63.49
19594;BME280;9944;48.240;16.478;2023-09-19T11:20:23;99568.13;;;22.21;64.29
19594;BME280;9944;48.240;16.478;2023-09-19T11:24:42;99572.81;;;22.33;62.77
19594;BME280;9944;48.240;16.478;2023-09-19T11:28:46;99566.81;;;22.28;62.73
19594;BME280;9944;48.240;16.478;2023-09-19T11:33:17;99575.41;;;22.19;61.68
19594;BME280;9944;48.240;16.478;2023-09-19T11:46:59;99571.72;;;21.88;61.76
19594;BME280;9944;48.240;16.478;2023-09-19T11:51:13;99575.44;;;21.85;61.25
19594;BME280;9944;48.240;16.478;2023-09-19T11:55:22;99563.66;;;21.88;62.04
19594;BME280;9944;48.240;16.478;2023-09-19T11:59:27;99564.28;;;21.93;62.34
19594;BME280;9944;48.240;16.478;2023-09-19T12:03:34;99562.38;;;21.95;61.78
19594;BME280;9944;48.240;16.478;2023-09-19T12:07:43;99547.75;;;22.17;62.05
19594;BME280;9944;48.240;16.478;2023-09-19T12:11:49;99557.13;;;22.41;61.39
19594;BME280;9944;48.240;16.478;2023-09-19T12:15:53;99558.44;;;22.66;60.59
19594;BME280;9944;48.240;16.478;2023-09-19T12:19:58;99564.59;;;22.68;59.56
19594;BME280;9944;48.240;16.478;2023-09-19T12:24:07;99554.19;;;22.62;59.37
19594;BME280;9944;48.240;16.478;2023-09-19T12:28:15;99561.56;;;22.74;58.82
19594;BME280;9944;48.240;16.478;2023-09-19T12:32:33;99558.34;;;22.98;59.19
19594;BME280;9944;48.240;16.478;2023-09-19T12:36:39;99565.94;;;23.22;58.49
19594;BME280;9944;48.240;16.478;2023-09-19T12:40:42;99559.28;;;23.43;57.68
19594;BME280;9944;48.240;16.478;2023-09-19T12:44:48;99571.06;;;23.56;56.97
19594;BME280;9944;48.240;16.478;2023-09-19T12:49:17;99565.78;;;23.69;56.91
19594;BME280;9944;48.240;16.478;2023-09-19T12:53:26;99589.75;;;23.74;56.06
19594;BME280;9944;48.240;16.478;2023-09-19T12:57:31;99585.28;;;23.59;56.48
19594;BME280;9944;48.240;16.478;2023-09-19T13:01:36;99592.25;;;23.32;57.09
19594;BME280;9944;48.240;16.478;2023-09-19T13:05:49;99601.78;;;23.08;58.12
19594;BME280;9944;48.240;16.478;2023-09-19T13:10:04;99606.16;;;22.78;58.05
19594;BME280;9944;48.240;16.478;2023-09-19T13:14:17;99613.63;;;22.57;59.08
19594;BME280;9944;48.240;16.478;2023-09-19T13:18:21;99609.16;;;22.40;59.39
19594;BME280;9944;48.240;16.478;2023-09-19T13:22:39;99612.91;;;22.22;60.52
19594;BME280;9944;48.240;16.478;2023-09-19T13:26:44;99603.59;;;22.12;60.13
19594;BME280;9944;48.240;16.478;2023-09-19T13:30:48;99611.38;;;22.00;60.44
19594;BME280;9944;48.240;16.478;2023-09-19T13:34:51;99601.28;;;21.88;61.19
19594;BME280;9944;48.240;16.478;2023-09-19T13:38:54;99618.72;;;21.79;62.52
19594;BME280;9944;48.240;16.478;2023-09-19T13:42:59;99622.94;;;21.67;64.01
19594;BME280;9944;48.240;16.478;2023-09-19T13:47:02;99608.31;;;21.56;65.12
19594;BME280;9944;48.240;16.478;2023-09-19T13:51:11;99617.19;;;21.40;66.03
19594;BME280;9944;48.240;16.478;2023-09-19T13:55:14;99607.00;;;21.29;66.79
19594;BME280;9944;48.240;16.478;2023-09-19T13:59:23;99615.53;;;21.20;66.87
19594;BME280;9944;48.240;16.478;2023-09-19T14:03:27;99607.78;;;21.14;67.69
19594;BME280;9944;48.240;16.478;2023-09-19T14:07:31;99602.56;;;21.11;68.12
19594;BME280;9944;48.240;16.478;2023-09-19T14:11:34;99597.34;;;21.08;68.88
19594;BME280;9944;48.240;16.478;2023-09-19T14:15:39;99588.63;;;21.03;69.54
19594;BME280;9944;48.240;16.478;2023-09-19T14:19:42;99600.16;;;21.05;69.24
19594;BME280;9944;48.240;16.478;2023-09-19T14:23:47;99599.09;;;21.09;68.57
19594;BME280;9944;48.240;16.478;2023-09-19T14:27:51;99595.16;;;21.16;68.59
19594;BME280;9944;48.240;16.478;2023-09-19T14:31:56;99589.31;;;21.25;69.40
19594;BME280;9944;48.240;16.478;2023-09-19T14:36:02;99593.34;;;21.34;68.62
19594;BME280;9944;48.240;16.478;2023-09-19T14:40:08;99586.94;;;21.37;68.15
19594;BME280;9944;48.240;16.478;2023-09-19T14:44:12;99589.53;;;21.38;67.14
19594;BME280;9944;48.240;16.478;2023-09-19T14:48:17;99589.53;;;21.38;66.96
19594;BME280;9944;48.240;16.478;2023-09-19T14:52:20;99586.78;;;21.40;66.56
19594;BME280;9944;48.240;16.478;2023-09-19T14:56:23;99591.06;;;21.44;66.46
19594;BME280;9944;48.240;16.478;2023-09-19T15:00:27;99596.25;;;21.47;64.73
19594;BME280;9944;48.240;16.478;2023-09-19T15:04:32;99595.16;;;21.51;62.60
19594;BME280;9944;48.240;16.478;2023-09-19T15:08:37;99602.94;;;21.56;62.01
19594;BME280;9944;48.240;16.478;2023-09-19T15:12:43;99602.78;;;21.59;60.17
19594;BME280;9944;48.240;16.478;2023-09-19T15:16:46;99592.75;;;21.62;61.25
19594;BME280;9944;48.240;16.478;2023-09-19T15:20:52;99597.97;;;21.65;61.01
19594;BME280;9944;48.240;16.478;2023-09-19T15:24:56;99597.97;;;21.65;60.68
19594;BME280;9944;48.240;16.478;2023-09-19T15:28:59;99605.16;;;21.65;60.67
19594;BME280;9944;48.240;16.478;2023-09-19T15:33:03;99614.25;;;21.62;59.82
19594;BME280;9944;48.240;16.478;2023-09-19T15:37:07;99608.16;;;21.59;60.08
19594;BME280;9944;48.240;16.478;2023-09-19T15:41:12;99609.13;;;21.58;59.31
19594;BME280;9944;48.240;16.478;2023-09-19T15:45:16;99618.22;;;21.55;59.84
19594;BME280;9944;48.240;16.478;2023-09-19T15:49:20;99617.34;;;21.55;59.46
19594;BME280;9944;48.240;16.478;2023-09-19T15:53:26;99606.69;;;21.53;59.44
19594;BME280;9944;48.240;16.478;2023-09-19T15:57:30;99608.44;;;21.54;59.47
19594;BME280;9944;48.240;16.478;2023-09-19T16:01:34;99613.94;;;21.51;59.40
19594;BME280;9944;48.240;16.478;2023-09-19T16:05:38;99612.13;;;21.52;59.77
19594;BME280;9944;48.240;16.478;2023-09-19T16:09:43;99606.03;;;21.48;59.62
19594;BME280;9944;48.240;16.478;2023-09-19T16:13:47;99605.50;;;21.41;59.75
19594;BME280;9944;48.240;16.478;2023-09-19T16:17:51;99607.63;;;21.35;59.33
19594;BME280;9944;48.240;16.478;2023-09-19T16:21:55;99615.84;;;21.31;59.63
19594;BME280;9944;48.240;16.478;2023-09-19T16:26:05;99618.84;;;21.25;59.44
19594;BME280;9944;48.240;16.478;2023-09-19T16:30:09;99618.22;;;21.20;59.01
19594;BME280;9944;48.240;16.478;2023-09-19T16:34:12;99607.78;;;21.14;59.21
19594;BME280;9944;48.240;16.478;2023-09-19T16:38:16;99616.06;;;21.09;59.28
19594;BME280;9944;48.240;16.478;2023-09-19T16:42:21;99609.09;;;21.05;59.16
19594;BME280;9944;48.240;16.478;2023-09-19T16:46:25;99616.25;;;21.05;59.19
19594;BME280;9944;48.240;16.478;2023-09-19T16:50:31;99618.38;;;20.98;59.26
19594;BME280;9944;48.240;16.478;2023-09-19T16:54:35;99617.66;;;20.94;58.53
19594;BME280;9944;48.240;16.478;2023-09-19T16:58:41;99616.16;;;20.89;58.42
19594;BME280;9944;48.240;16.478;2023-09-19T17:02:46;99618.19;;;20.84;58.39
19594;BME280;9944;48.240;16.478;2023-09-19T17:06:54;99614.94;;;20.77;58.91
19594;BME280;9944;48.240;16.478;2023-09-19T17:11:03;99620.63;;;20.71;58.94
19594;BME280;9944;48.240;16.478;2023-09-19T17:15:09;99628.88;;;20.66;58.92
19594;BME280;9944;48.240;16.478;2023-09-19T17:19:12;99622.88;;;20.61;59.54
19594;BME280;9944;48.240;16.478;2023-09-19T17:23:16;99624.97;;;20.54;59.67
19594;BME280;9944;48.240;16.478;2023-09-19T17:27:19;99631.44;;;20.50;59.55
19594;BME280;9944;48.240;16.478;2023-09-19T17:31:25;99628.97;;;20.46;59.87
19594;BME280;9944;48.240;16.478;2023-09-19T17:35:30;99637.25;;;20.41;60.06
19594;BME280;9944;48.240;16.478;2023-09-19T17:39:34;99639.16;;;20.37;60.31
19594;BME280;9944;48.240;16.478;2023-09-19T17:43:37;99641.13;;;20.34;60.73
19594;BME280;9944;48.240;16.478;2023-09-19T17:47:43;99651.06;;;20.32;60.87
19594;BME280;9944;48.240;16.478;2023-09-19T17:51:46;99653.03;;;20.27;60.98
19594;BME280;9944;48.240;16.478;2023-09-19T17:55:50;99651.47;;;20.23;61.07
19594;BME280;9944;48.240;16.478;2023-09-19T17:59:53;99657.03;;;20.18;60.94
19594;BME280;9944;48.240;16.478;2023-09-19T18:03:58;99658.19;;;20.12;60.68
19594;BME280;9944;48.240;16.478;2023-09-19T18:08:04;99661.94;;;20.08;61.02
19594;BME280;9944;48.240;16.478;2023-09-19T18:12:08;99671.06;;;20.04;61.00
19594;BME280;9944;48.240;16.478;2023-09-19T18:16:11;99680.97;;;20.02;60.89
19594;BME280;9944;48.240;16.478;2023-09-19T18:20:17;99684.75;;;19.98;61.28
19594;BME280;9944;48.240;16.478;2023-09-19T18:24:21;99687.63;;;19.93;61.07
19594;BME280;9944;48.240;16.478;2023-09-19T18:28:24;99694.00;;;19.91;60.98
19594;BME280;9944;48.240;16.478;2023-09-19T18:32:27;99697.72;;;19.87;61.03
19594;BME280;9944;48.240;16.478;2023-09-19T18:36:33;99709.53;;;19.83;61.43
19594;BME280;9944;48.240;16.478;2023-09-19T18:40:42;99722.25;;;19.77;61.51
19594;BME280;9944;48.240;16.478;2023-09-19T18:44:46;99707.22;;;19.73;61.40
19594;BME280;9944;48.240;16.478;2023-09-19T18:48:53;99714.59;;;19.68;61.54
19594;BME280;9944;48.240;16.478;2023-09-19T18:52:59;99721.97;;;19.63;61.70
19594;BME280;9944;48.240;16.478;2023-09-19T18:57:03;99723.81;;;19.61;61.72
19594;BME280;9944;48.240;16.478;2023-09-19T19:01:07;99729.34;;;19.58;61.87
19594;BME280;9944;48.240;16.478;2023-09-19T19:05:11;99731.19;;;19.56;61.63
19594;BME280;9944;48.240;16.478;2023-09-19T19:09:17;99726.03;;;19.51;61.97
19594;BME280;9944;48.240;16.478;2023-09-19T19:13:20;99740.47;;;19.47;61.51
19594;BME280;9944;48.240;16.478;2023-09-19T19:17:24;99733.47;;;19.43;61.58
19594;BME280;9944;48.240;16.478;2023-09-19T19:21:28;99729.19;;;19.39;61.69
19594;BME280;9944;48.240;16.478;2023-09-19T19:25:36;99736.47;;;19.35;61.71
19594;BME280;9944;48.240;16.478;2023-09-19T19:29:39;99738.47;;;19.30;61.76
19594;BME280;9944;48.240;16.478;2023-09-19T19:33:43;99745.75;;;19.27;61.41
19594;BME280;9944;48.240;16.478;2023-09-19T19:37:46;99744.97;;;19.23;61.83
19594;BME280;9944;48.240;16.478;2023-09-19T19:41:52;99743.38;;;19.19;61.43
19594;BME280;9944;48.240;16.478;2023-09-19T19:45:56;99744.50;;;19.13;61.61
19594;BME280;9944;48.240;16.478;2023-09-19T19:49:59;99744.78;;;19.05;61.69
19594;BME280;9944;48.240;16.478;2023-09-19T19:54:03;99751.25;;;19.00;61.57
19594;BME280;9944;48.240;16.478;2023-09-19T19:58:08;99753.19;;;18.96;61.69
19594;BME280;9944;48.240;16.478;2023-09-19T20:02:11;99758.66;;;18.93;61.52
19594;BME280;9944;48.240;16.478;2023-09-19T20:06:15;99749.81;;;18.91;62.16
19594;BME280;9944;48.240;16.478;2023-09-19T20:10:19;99751.81;;;18.86;61.97
19594;BME280;9944;48.240;16.478;2023-09-19T20:14:25;99757.25;;;18.83;62.44
19594;BME280;9944;48.240;16.478;2023-09-19T20:18:28;99756.50;;;18.79;62.19
19594;BME280;9944;48.240;16.478;2023-09-19T20:22:32;99762.09;;;18.73;62.40
19594;BME280;9944;48.240;16.478;2023-09-19T20:26:36;99769.38;;;18.69;62.28
19594;BME280;9944;48.240;16.478;2023-09-19T20:30:42;99770.47;;;18.64;62.21
19594;BME280;9944;48.240;16.478;2023-09-19T20:34:46;99774.09;;;18.61;62.33
19594;BME280;9944;48.240;16.478;2023-09-19T20:38:49;99768.88;;;18.58;62.71
19594;BME280;9944;48.240;16.478;2023-09-19T20:42:53;99776.94;;;18.57;62.78
19594;BME280;9944;48.240;16.478;2023-09-19T20:46:58;99772.59;;;18.54;63.21
19594;BME280;9944;48.240;16.478;2023-09-19T20:51:05;99777.19;;;18.50;63.09
19594;BME280;9944;48.240;16.478;2023-09-19T20:55:10;99780.81;;;18.48;63.34
19594;BME280;9944;48.240;16.478;2023-09-19T20:59:13;99787.13;;;18.47;63.62
19594;BME280;9944;48.240;16.478;2023-09-19T21:03:18;99787.22;;;18.44;63.57
19594;BME280;9944;48.240;16.478;2023-09-19T21:07:21;99790.81;;;18.43;63.82
19594;BME280;9944;48.240;16.478;2023-09-19T21:11:25;99781.13;;;18.40;63.61
19594;BME280;9944;48.240;16.478;2023-09-19T21:15:29;99784.06;;;18.32;63.80
19594;BME280;9944;48.240;16.478;2023-09-19T21:19:34;99790.44;;;18.28;63.75
19594;BME280;9944;48.240;16.478;2023-09-19T21:23:38;99789.72;;;18.23;63.91
19594;BME280;9944;48.240;16.478;2023-09-19T21:27:42;99791.66;;;18.20;64.13
19594;BME280;9944;48.240;16.478;2023-09-19T21:31:45;99789.94;;;18.17;63.93
19594;BME280;9944;48.240;16.478;2023-09-19T21:35:51;99795.41;;;18.14;64.15
19594;BME280;9944;48.240;16.478;2023-09-19T21:39:54;99798.22;;;18.09;63.93
19594;BME280;9944;48.240;16.478;2023-09-19T21:43:57;99796.69;;;18.02;63.85
19594;BME280;9944;48.240;16.478;2023-09-19T21:48:01;99793.38;;;17.96;64.02
19594;BME280;9944;48.240;16.478;2023-09-19T21:52:06;99801.47;;;17.92;64.32